Data for 01/22/2007

Time Sea-Level Adjusted Pressure Absolute Pressure Temperature Relative Humidity Dew Point   
(mb) (inHg) (mb) (inHg) (C) (F) (%) (C) (F)
00:05 1023 30.21 852 25.16 -4.8 23.4 59 -11.7 11
00:10 1023 30.21 852 25.16 -4.6 23.7 58 -11.6 11.1
00:15 1022 30.18 852 25.16 -4.8 23.3 59 -11.6 11.1
00:20 1022 30.18 852 25.16 -4.9 23.2 59 -11.7 10.9
00:25 1022 30.18 852 25.16 -4.9 23.1 60 -11.5 11.3
00:30 1022 30.18 852 25.16 -4.8 23.3 58 -11.9 10.7
00:35 1022 30.18 852 25.16 -4.9 23.2 58 -11.8 10.7
00:40 1023 30.21 852 25.16 -4.9 23.2 59 -11.7 11
00:45 1023 30.21 852 25.16 -4.8 23.3 58 -11.9 10.6
00:50 1023 30.21 852 25.16 -4.6 23.6 60 -11.3 11.7
00:55 1023 30.21 852 25.16 -4.8 23.4 60 -11.5 11.4
01:00 1022 30.18 852 25.16 -4.9 23.2 60 -11.6 11.2
01:05 1022 30.18 852 25.16 -5.1 22.9 61 -11.4 11.5
01:10 1022 30.18 852 25.16 -5.1 22.8 62 -11.3 11.6
01:15 1022 30.18 851 25.13 -5.3 22.4 63 -11.4 11.5
01:20 1022 30.18 851 25.13 -5.3 22.4 64 -11.2 11.8
01:25 1022 30.18 851 25.13 -5.3 22.4 62 -11.5 11.3
01:30 1022 30.18 851 25.13 -5.2 22.7 60 -11.7 10.9
01:35 1022 30.18 851 25.13 -4.7 23.5 57 -12.1 10.2
01:40 1022 30.18 852 25.16 -4.7 23.6 59 -11.4 11.4
01:45 1022 30.18 851 25.13 -5 23.1 62 -11.1 12.1
01:50 1022 30.18 852 25.16 -5.2 22.6 65 -10.8 12.5
01:55 1022 30.18 851 25.13 -6.1 21 67 -11.2 11.8
02:00 1022 30.18 851 25.13 -5.7 21.8 64 -11.5 11.2
02:05 1022 30.18 851 25.13 -5.7 21.7 65 -11.3 11.6
02:10 1022 30.18 851 25.13 -5.7 21.7 64 -11.4 11.5
02:15 1022 30.18 851 25.13 -5.3 22.4 63 -11.3 11.6
02:20 1022 30.18 851 25.13 -5.2 22.7 62 -11.4 11.4
02:25 1022 30.18 851 25.13 -5.5 22 65 -11.1 12.1
02:30 1022 30.18 851 25.13 -5.8 21.6 66 -11.1 12.1
02:35 1022 30.18 851 25.13 -5.7 21.7 65 -11.4 11.5
02:40 1022 30.18 852 25.16 -5.4 22.3 62 -11.6 11.1
02:45 1022 30.18 852 25.16 -5.3 22.5 64 -11.1 12.1
02:50 1022 30.18 852 25.16 -5.5 22.1 66 -11 12.3
02:55 1022 30.18 851 25.13 -5.4 22.3 65 -11 12.1
03:00 1022 30.18 851 25.13 -5.5 22.1 67 -10.6 12.9
03:05 1022 30.18 851 25.13 -5.5 22.1 67 -10.6 13
03:10 1022 30.18 851 25.13 -5.5 22.1 69 -10.4 13.3
03:15 1022 30.18 851 25.13 -5.5 22.1 71 -10 14
03:20 1022 30.18 851 25.13 -5.6 21.9 71 -10.1 13.8
03:25 1022 30.18 851 25.13 -5.5 22.2 68 -10.5 13.1
03:30 1022 30.18 851 25.13 -5.4 22.3 68 -10.4 13.2
03:35 1022 30.18 851 25.13 -5.3 22.4 68 -10.3 13.4
03:40 1022 30.18 851 25.13 -5.5 22.1 69 -10.3 13.5
03:45 1022 30.18 851 25.13 -5.4 22.3 68 -10.4 13.2
03:50 1022 30.18 851 25.13 -5.3 22.5 67 -10.4 13.3
03:55 1022 30.18 851 25.13 -5.3 22.4 67 -10.5 13.1
04:00 1022 30.18 851 25.13 -5.2 22.6 67 -10.4 13.2
04:05 1022 30.18 852 25.16 -5.1 22.8 68 -10.2 13.6
04:10 1022 30.18 852 25.16 -5 22.9 67 -10.2 13.7
04:15 1022 30.18 852 25.16 -4.6 23.7 66 -10 14.1
04:20 1023 30.21 852 25.16 -4.3 24.2 63 -10.5 13.2
04:25 1023 30.21 852 25.16 -4.2 24.4 61 -10.6 12.9
04:30 1023 30.21 852 25.16 -4.2 24.5 62 -10.5 13.1
04:35 1023 30.21 852 25.16 -4.1 24.6 60 -10.8 12.5
04:40 1023 30.21 852 25.16 -4 24.8 59 -10.9 12.4
04:45 1023 30.21 852 25.16 -4 24.8 58 -11 12.2
04:50 1023 30.21 852 25.16 -4 24.7 59 -10.9 12.3
04:55 1023 30.21 852 25.16 -4.1 24.7 59 -10.9 12.3
05:00 1023 30.21 852 25.16 -4.2 24.4 62 -10.5 13.1
05:05 1023 30.21 852 25.16 -4.4 24.2 64 -10.1 13.8
05:10 1023 30.21 852 25.16 -4.9 23.2 67 -10 13.9
05:15 1023 30.21 852 25.16 -4.8 23.4 67 -10.1 13.9
05:20 1023 30.21 852 25.16 -4.7 23.6 70 -9.4 15.1
05:25 1023 30.21 852 25.16 -4.7 23.6 70 -9.4 15.1
05:30 1023 30.21 852 25.16 -4.7 23.6 69 -9.5 14.9
05:35 1022 30.18 852 25.16 -4.5 23.9 68 -9.5 15
05:40 1023 30.21 852 25.16 -3.9 25 64 -9.7 14.6
05:45 1023 30.21 852 25.16 -3.6 25.5 64 -9.5 14.9
05:50 1023 30.21 852 25.16 -3.6 25.6 63 -9.6 14.6
05:55 1023 30.21 852 25.16 -3.4 25.9 63 -9.5 14.9
06:00 1023 30.21 852 25.16 -3.3 26.1 63 -9.4 15.1
06:05 1023 30.21 852 25.16 -3.3 26 65 -8.9 15.9
06:10 1023 30.21 852 25.16 -3.8 25.2 66 -9.2 15.5
06:15 1023 30.21 852 25.16 -4 24.9 64 -9.8 14.4
06:20 1023 30.21 852 25.16 -4.1 24.5 64 -10.1 13.9
06:25 1023 30.21 852 25.16 -4.4 24.1 63 -10.3 13.5
06:30 1023 30.21 852 25.16 -4.4 24.2 65 -10.1 13.9
06:35 1023 30.21 852 25.16 -4.4 24.1 65 -10 14
06:40 1023 30.21 852 25.16 -4.4 24.1 64 -10.2 13.7
06:45 1023 30.21 852 25.16 -4.4 24.1 65 -10 14.1
06:50 1023 30.21 852 25.16 -4.1 24.6 63 -10.2 13.7
06:55 1023 30.21 852 25.16 -4.1 24.7 65 -9.7 14.5
07:00 1023 30.21 852 25.16 -4.1 24.6 68 -9.1 15.6
07:05 1023 30.21 852 25.16 -3.8 25.1 68 -8.9 15.9
07:10 1023 30.21 852 25.16 -3.8 25.2 69 -8.7 16.3
07:15 1023 30.21 852 25.16 -3.7 25.3 67 -9 15.8
07:20 1023 30.21 852 25.16 -3.8 25.2 66 -9.2 15.5
07:25 1023 30.21 852 25.16 -3.7 25.3 67 -9.1 15.7
07:30 1023 30.21 852 25.16 -3.8 25.1 71 -8.4 16.9
07:35 1023 30.21 852 25.16 -3.9 25.1 73 -8 17.7
07:40 1023 30.21 852 25.16 -4 24.9 73 -8.1 17.3
07:45 1023 30.21 852 25.16 -3.7 25.4 71 -8.2 17.2
07:50 1023 30.21 852 25.16 -3.6 25.6 71 -8.1 17.5
07:55 1023 30.21 853 25.19 -3.7 25.4 72 -7.9 17.7
08:00 1023 30.21 853 25.19 -3.4 25.9 70 -8.2 17.2
08:05 1023 30.21 853 25.19 -3.2 26.3 66 -8.6 16.5
08:10 1023 30.21 853 25.19 -3 26.6 63 -9 15.7
08:15 1023 30.21 852 25.16 -2.9 26.9 62 -9.2 15.4
08:20 1023 30.21 852 25.16 -3 26.7 62 -9.3 15.2
08:25 1023 30.21 852 25.16 -3 26.6 61 -9.4 15
08:30 1023 30.21 852 25.16 -2.9 26.9 62 -9.1 15.6
08:35 1023 30.21 852 25.16 -2.7 27.1 62 -9 15.9
08:40 1023 30.21 852 25.16 -2.6 27.2 64 -8.6 16.5
08:45 1023 30.21 852 25.16 -2.5 27.5 66 -8 17.5
08:50 1023 30.21 852 25.16 -2.5 27.5 65 -8.2 17.3
08:55 1023 30.21 852 25.16 -2.6 27.3 65 -8.3 17.1
09:00 1022 30.18 852 25.16 -2.8 26.9 65 -8.5 16.7
09:05 1023 30.21 852 25.16 -3.1 26.5 66 -8.6 16.5
09:10 1023 30.21 852 25.16 -2.9 26.8 65 -8.5 16.7
09:15 1023 30.21 852 25.16 -2.4 27.7 63 -8.4 16.8
09:20 1023 30.21 852 25.16 -2.1 28.3 63 -8.3 17.1
09:25 1023 30.21 852 25.16 -1.8 28.8 62 -8.2 17.3
09:30 1023 30.21 852 25.16 -1.5 29.3 60 -8.3 17
09:35 1023 30.21 852 25.16 -1.4 29.5 59 -8.4 16.9
09:40 1023 30.21 852 25.16 -1.3 29.7 59 -8.2 17.2
09:45 1023 30.21 852 25.16 -1 30.1 59 -8 17.6
09:50 1023 30.21 852 25.16 -1.2 29.8 61 -7.8 18
09:55 1023 30.21 852 25.16 -1.1 30 60 -8 17.6
10:00 1023 30.21 852 25.16 -1.3 29.7 61 -7.9 17.8
10:05 1023 30.21 852 25.16 -1.4 29.5 61 -8 17.6
10:10 1023 30.21 852 25.16 -1.4 29.5 61 -7.9 17.7
10:15 1023 30.21 852 25.16 -1.2 29.8 62 -7.6 18.3
10:20 1023 30.21 852 25.16 -1.3 29.6 61 -7.8 17.9
10:25 1023 30.21 852 25.16 -1.4 29.5 61 -7.9 17.8
10:30 1023 30.21 852 25.16 -1.1 30 60 -7.9 17.8
10:35 1023 30.21 852 25.16 -0.9 30.4 60 -7.7 18.1
10:40 1023 30.21 852 25.16 -0.6 30.9 59 -7.6 18.2
10:45 1023 30.21 852 25.16 -0.2 31.6 58 -7.5 18.6
10:50 1022 30.18 852 25.16 -0 32 57 -7.4 18.6
10:55 1022 30.18 852 25.16 0.1 32.1 57 -7.5 18.4
11:00 1022 30.18 852 25.16 0.3 32.5 57 -7.3 18.8
11:05 1022 30.18 852 25.16 0.8 33.4 54 -7.5 18.4
11:10 1023 30.21 852 25.16 1.2 34.2 53 -7.3 18.9
11:15 1023 30.21 852 25.16 1.2 34.2 54 -7.2 19.1
11:20 1023 30.21 852 25.16 1.8 35.2 50 -7.6 18.4
11:25 1023 30.21 852 25.16 2 35.6 49 -7.5 18.5
11:30 1023 30.21 852 25.16 1.7 35.1 50 -7.6 18.3
11:35 1023 30.21 852 25.16 1.4 34.5 51 -7.6 18.4
11:40 1023 30.21 852 25.16 2 35.5 50 -7.4 18.6
11:45 1023 30.21 852 25.16 1.9 35.5 50 -7.5 18.5
11:50 1023 30.21 852 25.16 1.5 34.7 52 -7.4 18.7
11:55 1023 30.21 852 25.16 1.1 34.1 53 -7.5 18.6
12:00 1023 30.21 852 25.16 1.7 35 49 -8 17.7
12:05 1022 30.18 852 25.16 1.4 34.6 49 -8.2 17.3
12:10 1022 30.18 852 25.16 1.5 34.8 48 -8.3 17
12:15 1022 30.18 852 25.16 1.6 35 49 -7.9 17.7
12:20 1022 30.18 852 25.16 1.4 34.4 51 -7.8 17.9
12:25 1022 30.18 851 25.13 1.6 34.9 48 -8.1 17.3
12:30 1022 30.18 851 25.13 2.6 36.6 45 -8.4 17
12:35 1022 30.18 851 25.13 3.3 37.9 45 -7.7 18.2
12:40 1022 30.18 851 25.13 2.8 37.1 47 -7.4 18.8
12:45 1022 30.18 851 25.13 1.6 35 50 -7.8 17.9
12:50 1022 30.18 851 25.13 2 35.6 48 -7.8 17.9
12:55 1022 30.18 851 25.13 2.3 36.1 49 -7.3 18.9
13:00 1022 30.18 851 25.13 2.5 36.5 47 -7.6 18.3
13:05 1022 30.18 851 25.13 2.6 36.8 48 -7.3 18.8
13:10 1022 30.18 851 25.13 2.4 36.4 49 -7.3 18.8
13:15 1022 30.18 851 25.13 2 35.6 50 -7.5 18.6
13:20 1021 30.15 851 25.13 2.3 36.1 49 -7.3 18.8
13:25 1021 30.15 851 25.13 2.5 36.5 48 -7.3 18.8
13:30 1021 30.15 851 25.13 2.9 37.2 48 -7.1 19.3
13:35 1021 30.15 851 25.13 2.9 37.2 48 -7 19.5
13:40 1021 30.15 851 25.13 3.2 37.8 47 -7.2 19.1
13:45 1021 30.15 851 25.13 3.8 38.8 45 -7 19.4
13:50 1021 30.15 851 25.13 4.4 39.9 43 -7.1 19.2
13:55 1021 30.15 851 25.13 4.1 39.3 45 -6.9 19.7
14:00 1021 30.15 851 25.13 4 39.2 44 -7.3 18.9
14:05 1021 30.15 850 25.1 3.9 39.1 44 -7.1 19.2
14:10 1021 30.15 850 25.1 3.9 39 45 -7.1 19.3
14:15 1021 30.15 850 25.1 4.1 39.4 43 -7.2 19
14:20 1021 30.15 850 25.1 4.5 40.1 42 -7.4 18.7
14:25 1021 30.15 850 25.1 5.1 41.1 40 -7.4 18.7
14:30 1021 30.15 850 25.1 5.1 41.3 40 -7.5 18.6
14:35 1021 30.15 850 25.1 4.4 40 43 -7.2 19.1
14:40 1021 30.15 850 25.1 4.3 39.8 42 -7.6 18.3
14:45 1021 30.15 850 25.1 5.2 41.3 39 -7.8 17.9
14:50 1021 30.15 850 25.1 5.4 41.8 41 -6.7 19.9
14:55 1021 30.15 850 25.1 5.1 41.2 41 -7.2 19
15:00 1021 30.15 850 25.1 4.9 40.7 43 -6.6 20.2
15:05 1021 30.15 850 25.1 4.8 40.7 42 -7 19.5
15:10 1021 30.15 850 25.1 4.7 40.5 44 -6.6 20.1
15:15 1021 30.15 850 25.1 4.9 40.8 42 -6.9 19.6
15:20 1021 30.15 850 25.1 5.1 41.1 43 -6.6 20.1
15:25 1021 30.15 850 25.1 4.8 40.7 43 -6.8 19.7
15:30 1021 30.15 850 25.1 4.6 40.4 43 -7 19.5
15:35 1021 30.15 850 25.1 4.5 40.1 45 -6.5 20.3
15:40 1021 30.15 850 25.1 4.4 39.9 45 -6.4 20.5
15:45 1021 30.15 850 25.1 4.3 39.7 45 -6.7 19.9
15:50 1021 30.15 850 25.1 4.2 39.6 46 -6.5 20.3
15:55 1021 30.15 850 25.1 4.2 39.6 46 -6.4 20.5
16:00 1021 30.15 850 25.1 4.1 39.4 46 -6.4 20.6
16:05 1021 30.15 850 25.1 3.8 38.8 48 -6.3 20.7
16:10 1021 30.15 850 25.1 3.7 38.7 50 -5.8 21.5
16:15 1021 30.15 850 25.1 3.3 38 50 -6.2 20.9
16:20 1021 30.15 850 25.1 2.7 36.9 53 -5.9 21.3
16:25 1021 30.15 850 25.1 2.7 36.9 53 -5.9 21.4
16:30 1021 30.15 850 25.1 2.8 37.1 52 -6 21.3
16:35 1021 30.15 850 25.1 3.1 37.5 53 -5.6 21.9
16:40 1021 30.15 850 25.1 3.4 38.1 50 -6 21.3
16:45 1020 30.12 850 25.1 3.4 38.1 52 -5.4 22.2
16:50 1020 30.12 850 25.1 3.2 37.8 52 -5.7 21.8
16:55 1020 30.12 849 25.07 3.3 37.9 53 -5.5 22.2
17:00 1020 30.12 849 25.07 3.2 37.8 51 -6 21.1
17:05 1020 30.12 849 25.07 3.2 37.7 49 -6.4 20.5
17:10 1020 30.12 849 25.07 3 37.5 50 -6.3 20.7
17:15 1020 30.12 849 25.07 2.7 36.9 52 -6.1 21
17:20 1020 30.12 849 25.07 2.6 36.7 52 -6.2 20.8
17:25 1020 30.12 849 25.07 2.8 37 49 -6.8 19.7
17:30 1020 30.12 849 25.07 3.2 37.8 49 -6.5 20.3
17:35 1020 30.12 849 25.07 3.4 38.1 49 -6.4 20.5
17:40 1020 30.12 849 25.07 3.3 38 50 -6.1 21
17:45 1020 30.12 849 25.07 3.1 37.6 50 -6.2 20.9
17:50 1020 30.12 850 25.1 3.2 37.7 50 -6.3 20.7
17:55 1021 30.15 850 25.1 3 37.4 52 -5.9 21.4
18:00 1021 30.15 850 25.1 2.8 37 52 -6 21.2
18:05 1021 30.15 850 25.1 2.7 36.9 53 -6 21.3
18:10 1021 30.15 850 25.1 2.7 36.8 53 -5.9 21.3
18:15 1021 30.15 850 25.1 2.6 36.6 53 -6 21.1
18:20 1021 30.15 850 25.1 2.7 36.8 52 -6.1 21
18:25 1020 30.12 850 25.1 2.7 36.8 53 -6 21.3
18:30 1021 30.15 850 25.1 2.6 36.7 54 -5.7 21.7
18:35 1021 30.15 850 25.1 2.5 36.5 53 -6 21.1
18:40 1021 30.15 850 25.1 1.8 35.2 58 -5.6 21.9
18:45 1021 30.15 850 25.1 1 33.7 59 -6.1 21
18:50 1021 30.15 850 25.1 1.2 34.1 58 -6.3 20.7
18:55 1021 30.15 850 25.1 1.7 35 56 -6.1 21
19:00 1021 30.15 850 25.1 1.7 35.1 57 -6 21.3
19:05 1021 30.15 850 25.1 1.7 35 57 -5.9 21.3
19:10 1021 30.15 850 25.1 1.2 34.2 59 -5.9 21.4
19:15 1021 30.15 850 25.1 1.1 34 60 -5.7 21.7
19:20 1021 30.15 850 25.1 0.8 33.5 63 -5.4 22.3
19:25 1021 30.15 850 25.1 1 33.8 62 -5.5 22.1
19:30 1021 30.15 850 25.1 1.3 34.3 61 -5.4 22.4
19:35 1021 30.15 850 25.1 1.1 33.9 64 -5.1 22.8
19:40 1021 30.15 850 25.1 0.6 33.1 65 -5.3 22.5
19:45 1021 30.15 850 25.1 0.4 32.7 67 -5.1 22.8
19:50 1021 30.15 850 25.1 0.4 32.8 67 -5.1 22.8
19:55 1021 30.15 850 25.1 0.7 33.3 66 -4.9 23.1
20:00 1021 30.15 850 25.1 1 33.8 65 -4.9 23.1
20:05 1021 30.15 850 25.1 1.3 34.3 62 -5.1 22.8
20:10 1021 30.15 850 25.1 1.6 34.8 62 -5 23
20:15 1021 30.15 850 25.1 1.6 34.8 62 -5 23
20:20 1021 30.15 850 25.1 1.4 34.4 61 -5.3 22.5
20:25 1021 30.15 850 25.1 1.4 34.5 62 -5 23
20:30 1021 30.15 850 25.1 1.5 34.8 60 -5.5 22.1
20:35 1021 30.15 850 25.1 1.6 34.9 61 -5.1 22.8
20:40 1021 30.15 851 25.13 1.3 34.4 63 -5 23
20:45 1022 30.18 851 25.13 1.3 34.4 61 -5.4 22.3
20:50 1022 30.18 851 25.13 1.3 34.3 61 -5.3 22.4
20:55 1022 30.18 851 25.13 1.3 34.3 61 -5.4 22.2
21:00 1022 30.18 851 25.13 1.6 34.8 59 -5.6 22
21:05 1022 30.18 851 25.13 1.8 35.2 58 -5.5 22
21:10 1022 30.18 851 25.13 2 35.6 58 -5.5 22.1
21:15 1022 30.18 851 25.13 2 35.6 58 -5.5 22.1
21:20 1022 30.18 851 25.13 1.9 35.5 57 -5.6 21.9
21:25 1022 30.18 851 25.13 1.6 34.9 60 -5.4 22.3
21:30 1022 30.18 851 25.13 1.4 34.6 59 -5.7 21.7
21:35 1022 30.18 851 25.13 1.5 34.6 59 -5.8 21.6
21:40 1022 30.18 851 25.13 1.4 34.5 60 -5.5 22.1
21:45 1022 30.18 851 25.13 1.4 34.4 60 -5.7 21.8
21:50 1022 30.18 851 25.13 1.3 34.4 59 -5.7 21.7
21:55 1022 30.18 851 25.13 1.3 34.4 61 -5.4 22.2
22:00 1022 30.18 851 25.13 1.2 34.2 59 -5.9 21.3
22:05 1022 30.18 851 25.13 1.3 34.4 60 -5.6 22
22:10 1021 30.15 851 25.13 1.2 34.1 60 -5.8 21.5
22:15 1022 30.18 851 25.13 1.3 34.3 59 -5.9 21.3
22:20 1022 30.18 851 25.13 1.2 34.1 60 -5.8 21.5
22:25 1022 30.18 851 25.13 1.2 34.2 59 -6 21.2
22:30 1022 30.18 851 25.13 1.6 35 58 -5.8 21.5
22:35 1021 30.15 851 25.13 1.7 35 58 -5.7 21.7
22:40 1022 30.18 851 25.13 1.6 34.9 57 -5.9 21.4
22:45 1022 30.18 851 25.13 1.8 35.2 56 -6 21.2
22:50 1022 30.18 851 25.13 2 35.6 56 -5.8 21.5
22:55 1022 30.18 851 25.13 1.9 35.5 59 -5.3 22.4
23:00 1022 30.18 851 25.13 1.8 35.2 60 -5.2 22.6
23:05 1022 30.18 851 25.13 1.7 35.1 60 -5.3 22.5
23:10 1022 30.18 852 25.16 1.7 35.1 61 -5.1 22.8
23:15 1022 30.18 852 25.16 1.1 33.9 65 -4.8 23.3
23:20 1022 30.18 852 25.16 0.5 32.9 66 -5.1 22.9
23:25 1022 30.18 852 25.16 0.7 33.2 66 -5 22.9
23:30 1023 30.21 852 25.16 0.6 33.1 65 -5.1 22.8
23:35 1023 30.21 852 25.16 0.6 33 67 -5 23.1
23:40 1022 30.18 851 25.13 0.4 32.8 68 -4.8 23.3
23:45 1022 30.18 852 25.16 0.1 32.3 70 -4.8 23.4
23:50 1023 30.21 852 25.16 0.2 32.4 68 -5.1 22.8
23:55 1023 30.21 852 25.16 0.5 32.8 67 -5 22.9
24:00 1023 30.21 852 25.16 0.8 33.4 64 -5.3 22.4